sensor_id;sensor_type;location;lat;lon;timestamp;P1;durP1;ratioP1;P2;durP2;ratioP2
3967;SDS011;9221;42.646;23.380;2022-10-16T00:01:32;15.97;;;6.23;;
3967;SDS011;9221;42.646;23.380;2022-10-16T00:03:58;19.93;;;7.97;;
3967;SDS011;9221;42.646;23.380;2022-10-16T00:06:25;16.73;;;6.73;;
3967;SDS011;9221;42.646;23.380;2022-10-16T00:08:51;13.70;;;6.50;;
3967;SDS011;9221;42.646;23.380;2022-10-16T00:11:22;16.00;;;6.80;;
3967;SDS011;9221;42.646;23.380;2022-10-16T00:13:50;17.20;;;7.07;;
3967;SDS011;9221;42.646;23.380;2022-10-16T00:19:01;19.67;;;7.00;;
3967;SDS011;9221;42.646;23.380;2022-10-16T00:21:28;20.83;;;6.50;;
3967;SDS011;9221;42.646;23.380;2022-10-16T00:23:56;17.87;;;7.17;;
3967;SDS011;9221;42.646;23.380;2022-10-16T00:26:24;17.53;;;6.83;;
3967;SDS011;9221;42.646;23.380;2022-10-16T00:28:51;15.30;;;6.60;;
3967;SDS011;9221;42.646;23.380;2022-10-16T00:31:18;23.17;;;7.93;;
3967;SDS011;9221;42.646;23.380;2022-10-16T00:33:45;20.27;;;6.47;;
3967;SDS011;9221;42.646;23.380;2022-10-16T00:36:12;16.07;;;6.73;;
3967;SDS011;9221;42.646;23.380;2022-10-16T00:38:40;23.77;;;6.87;;
3967;SDS011;9221;42.646;23.380;2022-10-16T00:41:07;17.10;;;6.90;;
3967;SDS011;9221;42.646;23.380;2022-10-16T00:46:07;27.40;;;7.10;;
3967;SDS011;9221;42.646;23.380;2022-10-16T00:49:16;15.77;;;6.20;;
3967;SDS011;9221;42.646;23.380;2022-10-16T00:51:48;14.50;;;6.23;;
3967;SDS011;9221;42.646;23.380;2022-10-16T00:54:19;14.20;;;5.70;;
3967;SDS011;9221;42.646;23.380;2022-10-16T00:56:51;16.67;;;6.20;;
3967;SDS011;9221;42.646;23.380;2022-10-16T00:59:19;12.07;;;6.00;;
3967;SDS011;9221;42.646;23.380;2022-10-16T01:01:50;16.37;;;6.80;;
3967;SDS011;9221;42.646;23.380;2022-10-16T01:04:16;20.53;;;6.63;;
3967;SDS011;9221;42.646;23.380;2022-10-16T01:14:25;19.73;;;6.50;;
3967;SDS011;9221;42.646;23.380;2022-10-16T01:17:01;17.70;;;6.50;;
3967;SDS011;9221;42.646;23.380;2022-10-16T01:22:15;14.67;;;4.40;;
3967;SDS011;9221;42.646;23.380;2022-10-16T01:24:44;8.93;;;3.57;;
3967;SDS011;9221;42.646;23.380;2022-10-16T01:27:13;9.90;;;4.13;;
3967;SDS011;9221;42.646;23.380;2022-10-16T01:35:36;13.00;;;3.83;;
3967;SDS011;9221;42.646;23.380;2022-10-16T01:38:15;8.67;;;3.77;;
3967;SDS011;9221;42.646;23.380;2022-10-16T01:40:48;7.87;;;2.73;;
3967;SDS011;9221;42.646;23.380;2022-10-16T01:43:19;6.83;;;3.27;;
3967;SDS011;9221;42.646;23.380;2022-10-16T01:45:50;13.90;;;3.20;;
3967;SDS011;9221;42.646;23.380;2022-10-16T01:48:17;8.07;;;3.30;;
3967;SDS011;9221;42.646;23.380;2022-10-16T01:50:48;7.67;;;3.33;;
3967;SDS011;9221;42.646;23.380;2022-10-16T01:53:20;6.43;;;2.73;;
3967;SDS011;9221;42.646;23.380;2022-10-16T01:55:49;7.67;;;2.73;;
3967;SDS011;9221;42.646;23.380;2022-10-16T01:58:17;4.80;;;2.90;;
3967;SDS011;9221;42.646;23.380;2022-10-16T02:00:43;6.73;;;3.53;;
3967;SDS011;9221;42.646;23.380;2022-10-16T02:03:11;6.13;;;2.97;;
3967;SDS011;9221;42.646;23.380;2022-10-16T02:08:12;7.67;;;3.00;;
3967;SDS011;9221;42.646;23.380;2022-10-16T02:10:38;6.87;;;2.70;;
3967;SDS011;9221;42.646;23.380;2022-10-16T02:15:56;6.97;;;3.30;;
3967;SDS011;9221;42.646;23.380;2022-10-16T02:18:22;6.10;;;2.97;;
3967;SDS011;9221;42.646;23.380;2022-10-16T02:20:52;7.50;;;3.23;;
3967;SDS011;9221;42.646;23.380;2022-10-16T02:23:41;6.37;;;3.43;;
3967;SDS011;9221;42.646;23.380;2022-10-16T02:26:09;8.53;;;3.20;;
3967;SDS011;9221;42.646;23.380;2022-10-16T02:28:44;6.47;;;3.23;;
3967;SDS011;9221;42.646;23.380;2022-10-16T02:31:16;9.10;;;3.40;;
3967;SDS011;9221;42.646;23.380;2022-10-16T02:33:47;7.63;;;3.70;;
3967;SDS011;9221;42.646;23.380;2022-10-16T02:36:15;13.43;;;3.40;;
3967;SDS011;9221;42.646;23.380;2022-10-16T02:38:41;8.93;;;3.40;;
3967;SDS011;9221;42.646;23.380;2022-10-16T02:41:06;7.57;;;3.10;;
3967;SDS011;9221;42.646;23.380;2022-10-16T02:43:32;8.23;;;3.30;;
3967;SDS011;9221;42.646;23.380;2022-10-16T02:45:59;5.47;;;3.20;;
3967;SDS011;9221;42.646;23.380;2022-10-16T02:48:24;7.37;;;3.43;;
3967;SDS011;9221;42.646;23.380;2022-10-16T02:50:50;7.43;;;3.00;;
3967;SDS011;9221;42.646;23.380;2022-10-16T02:53:16;10.43;;;3.40;;
3967;SDS011;9221;42.646;23.380;2022-10-16T02:55:41;5.67;;;3.00;;
3967;SDS011;9221;42.646;23.380;2022-10-16T02:58:07;7.33;;;3.70;;
3967;SDS011;9221;42.646;23.380;2022-10-16T03:00:32;9.53;;;3.97;;
3967;SDS011;9221;42.646;23.380;2022-10-16T03:02:57;8.30;;;3.90;;
3967;SDS011;9221;42.646;23.380;2022-10-16T03:05:23;10.80;;;3.70;;
3967;SDS011;9221;42.646;23.380;2022-10-16T03:07:48;6.80;;;3.17;;
3967;SDS011;9221;42.646;23.380;2022-10-16T03:10:14;9.63;;;3.17;;
3967;SDS011;9221;42.646;23.380;2022-10-16T03:12:39;12.40;;;4.40;;
3967;SDS011;9221;42.646;23.380;2022-10-16T03:15:05;8.57;;;3.90;;
3967;SDS011;9221;42.646;23.380;2022-10-16T03:17:31;10.10;;;3.70;;
3967;SDS011;9221;42.646;23.380;2022-10-16T03:19:57;15.83;;;4.67;;
3967;SDS011;9221;42.646;23.380;2022-10-16T03:22:22;8.00;;;4.10;;
3967;SDS011;9221;42.646;23.380;2022-10-16T03:24:48;10.93;;;4.90;;
3967;SDS011;9221;42.646;23.380;2022-10-16T03:27:13;5.20;;;3.40;;
3967;SDS011;9221;42.646;23.380;2022-10-16T03:29:39;11.03;;;4.90;;
3967;SDS011;9221;42.646;23.380;2022-10-16T03:32:04;9.90;;;3.90;;
3967;SDS011;9221;42.646;23.380;2022-10-16T03:34:30;9.90;;;3.97;;
3967;SDS011;9221;42.646;23.380;2022-10-16T03:36:55;9.00;;;4.23;;
3967;SDS011;9221;42.646;23.380;2022-10-16T03:39:21;8.00;;;4.07;;
3967;SDS011;9221;42.646;23.380;2022-10-16T03:41:46;11.23;;;4.30;;
3967;SDS011;9221;42.646;23.380;2022-10-16T03:44:12;10.07;;;4.30;;
3967;SDS011;9221;42.646;23.380;2022-10-16T03:46:38;15.77;;;4.20;;
3967;SDS011;9221;42.646;23.380;2022-10-16T03:49:03;12.60;;;3.90;;
3967;SDS011;9221;42.646;23.380;2022-10-16T03:51:29;13.20;;;4.60;;
3967;SDS011;9221;42.646;23.380;2022-10-16T03:53:54;8.77;;;3.60;;
3967;SDS011;9221;42.646;23.380;2022-10-16T03:56:20;7.27;;;4.00;;
3967;SDS011;9221;42.646;23.380;2022-10-16T03:58:45;16.60;;;4.33;;
3967;SDS011;9221;42.646;23.380;2022-10-16T04:01:11;7.23;;;3.53;;
3967;SDS011;9221;42.646;23.380;2022-10-16T04:03:36;7.70;;;4.30;;
3967;SDS011;9221;42.646;23.380;2022-10-16T04:06:02;9.70;;;4.37;;
3967;SDS011;9221;42.646;23.380;2022-10-16T04:08:27;10.07;;;4.40;;
3967;SDS011;9221;42.646;23.380;2022-10-16T04:10:53;11.20;;;4.27;;
3967;SDS011;9221;42.646;23.380;2022-10-16T04:13:18;12.93;;;5.23;;
3967;SDS011;9221;42.646;23.380;2022-10-16T04:15:44;9.73;;;4.47;;
3967;SDS011;9221;42.646;23.380;2022-10-16T04:18:10;9.80;;;4.50;;
3967;SDS011;9221;42.646;23.380;2022-10-16T04:20:36;12.27;;;3.83;;
3967;SDS011;9221;42.646;23.380;2022-10-16T04:23:01;11.20;;;4.87;;
3967;SDS011;9221;42.646;23.380;2022-10-16T04:25:28;10.87;;;4.70;;
3967;SDS011;9221;42.646;23.380;2022-10-16T04:27:53;13.37;;;4.90;;
3967;SDS011;9221;42.646;23.380;2022-10-16T04:30:20;9.93;;;4.57;;
3967;SDS011;9221;42.646;23.380;2022-10-16T04:32:49;15.80;;;4.60;;
3967;SDS011;9221;42.646;23.380;2022-10-16T04:35:15;17.60;;;4.87;;
3967;SDS011;9221;42.646;23.380;2022-10-16T04:37:44;10.50;;;4.63;;
3967;SDS011;9221;42.646;23.380;2022-10-16T04:40:10;8.53;;;4.40;;
3967;SDS011;9221;42.646;23.380;2022-10-16T04:42:36;9.70;;;3.93;;
3967;SDS011;9221;42.646;23.380;2022-10-16T04:45:01;9.67;;;4.97;;
3967;SDS011;9221;42.646;23.380;2022-10-16T04:47:27;10.00;;;4.67;;
3967;SDS011;9221;42.646;23.380;2022-10-16T04:49:52;17.97;;;5.30;;
3967;SDS011;9221;42.646;23.380;2022-10-16T04:52:18;19.93;;;5.00;;
3967;SDS011;9221;42.646;23.380;2022-10-16T04:54:44;13.37;;;4.80;;
3967;SDS011;9221;42.646;23.380;2022-10-16T04:57:10;11.60;;;4.30;;
3967;SDS011;9221;42.646;23.380;2022-10-16T04:59:36;12.10;;;4.57;;
3967;SDS011;9221;42.646;23.380;2022-10-16T05:02:01;8.40;;;3.73;;
3967;SDS011;9221;42.646;23.380;2022-10-16T05:04:26;7.07;;;3.93;;
3967;SDS011;9221;42.646;23.380;2022-10-16T05:06:52;10.10;;;4.27;;
3967;SDS011;9221;42.646;23.380;2022-10-16T05:09:17;9.33;;;4.17;;
3967;SDS011;9221;42.646;23.380;2022-10-16T05:11:43;13.23;;;4.77;;
3967;SDS011;9221;42.646;23.380;2022-10-16T05:14:08;11.13;;;5.23;;
3967;SDS011;9221;42.646;23.380;2022-10-16T05:16:34;12.03;;;5.50;;
3967;SDS011;9221;42.646;23.380;2022-10-16T05:18:59;12.30;;;4.60;;
3967;SDS011;9221;42.646;23.380;2022-10-16T05:21:25;14.67;;;5.13;;
3967;SDS011;9221;42.646;23.380;2022-10-16T05:23:50;9.30;;;4.70;;
3967;SDS011;9221;42.646;23.380;2022-10-16T05:26:15;9.97;;;5.13;;
3967;SDS011;9221;42.646;23.380;2022-10-16T05:28:41;10.83;;;4.47;;
3967;SDS011;9221;42.646;23.380;2022-10-16T05:31:07;13.67;;;5.30;;
3967;SDS011;9221;42.646;23.380;2022-10-16T05:33:33;14.07;;;5.50;;
3967;SDS011;9221;42.646;23.380;2022-10-16T05:36:05;8.90;;;3.93;;
3967;SDS011;9221;42.646;23.380;2022-10-16T05:38:32;8.37;;;4.03;;
3967;SDS011;9221;42.646;23.380;2022-10-16T05:41:02;10.97;;;5.27;;
3967;SDS011;9221;42.646;23.380;2022-10-16T05:43:29;13.40;;;5.67;;
3967;SDS011;9221;42.646;23.380;2022-10-16T05:45:59;12.33;;;5.03;;
3967;SDS011;9221;42.646;23.380;2022-10-16T05:48:29;10.80;;;4.20;;
3967;SDS011;9221;42.646;23.380;2022-10-16T05:50:59;12.33;;;4.20;;
3967;SDS011;9221;42.646;23.380;2022-10-16T05:53:27;12.00;;;4.77;;
3967;SDS011;9221;42.646;23.380;2022-10-16T05:55:54;7.23;;;3.70;;
3967;SDS011;9221;42.646;23.380;2022-10-16T05:58:21;7.47;;;4.37;;
3967;SDS011;9221;42.646;23.380;2022-10-16T06:01:00;21.00;;;4.60;;
3967;SDS011;9221;42.646;23.380;2022-10-16T06:03:32;6.00;;;3.60;;
3967;SDS011;9221;42.646;23.380;2022-10-16T06:05:58;6.40;;;3.27;;
3967;SDS011;9221;42.646;23.380;2022-10-16T06:08:23;8.67;;;4.03;;
3967;SDS011;9221;42.646;23.380;2022-10-16T06:10:49;8.80;;;3.60;;
3967;SDS011;9221;42.646;23.380;2022-10-16T06:13:29;10.87;;;3.30;;
3967;SDS011;9221;42.646;23.380;2022-10-16T06:15:56;11.43;;;4.10;;
3967;SDS011;9221;42.646;23.380;2022-10-16T06:18:23;7.63;;;3.60;;
3967;SDS011;9221;42.646;23.380;2022-10-16T06:20:48;8.63;;;4.30;;
3967;SDS011;9221;42.646;23.380;2022-10-16T06:23:14;11.30;;;4.10;;
3967;SDS011;9221;42.646;23.380;2022-10-16T06:25:39;9.63;;;4.23;;
3967;SDS011;9221;42.646;23.380;2022-10-16T06:28:04;7.03;;;3.60;;
3967;SDS011;9221;42.646;23.380;2022-10-16T06:30:30;9.50;;;3.40;;
3967;SDS011;9221;42.646;23.380;2022-10-16T06:32:55;9.30;;;4.07;;
3967;SDS011;9221;42.646;23.380;2022-10-16T06:35:21;12.70;;;4.43;;
3967;SDS011;9221;42.646;23.380;2022-10-16T06:37:46;12.03;;;3.97;;
3967;SDS011;9221;42.646;23.380;2022-10-16T06:40:12;8.50;;;3.80;;
3967;SDS011;9221;42.646;23.380;2022-10-16T06:42:39;6.90;;;3.70;;
3967;SDS011;9221;42.646;23.380;2022-10-16T06:45:05;5.87;;;3.70;;
3967;SDS011;9221;42.646;23.380;2022-10-16T06:47:30;12.80;;;3.80;;
3967;SDS011;9221;42.646;23.380;2022-10-16T06:49:56;7.67;;;3.90;;
3967;SDS011;9221;42.646;23.380;2022-10-16T06:52:21;6.13;;;3.63;;
3967;SDS011;9221;42.646;23.380;2022-10-16T06:54:47;12.50;;;4.20;;
3967;SDS011;9221;42.646;23.380;2022-10-16T06:57:12;7.07;;;3.70;;
3967;SDS011;9221;42.646;23.380;2022-10-16T06:59:39;17.63;;;4.53;;
3967;SDS011;9221;42.646;23.380;2022-10-16T07:02:04;15.93;;;5.70;;
3967;SDS011;9221;42.646;23.380;2022-10-16T07:04:31;10.87;;;5.13;;
3967;SDS011;9221;42.646;23.380;2022-10-16T07:06:57;11.80;;;4.90;;
3967;SDS011;9221;42.646;23.380;2022-10-16T07:09:22;9.97;;;4.70;;
3967;SDS011;9221;42.646;23.380;2022-10-16T07:11:48;9.93;;;5.17;;
3967;SDS011;9221;42.646;23.380;2022-10-16T07:14:15;13.33;;;5.43;;
3967;SDS011;9221;42.646;23.380;2022-10-16T07:16:41;12.13;;;4.60;;
3967;SDS011;9221;42.646;23.380;2022-10-16T07:19:07;14.43;;;4.60;;
3967;SDS011;9221;42.646;23.380;2022-10-16T07:21:33;16.83;;;5.23;;
3967;SDS011;9221;42.646;23.380;2022-10-16T07:24:03;9.93;;;5.17;;
3967;SDS011;9221;42.646;23.380;2022-10-16T07:26:36;15.90;;;5.60;;
3967;SDS011;9221;42.646;23.380;2022-10-16T07:29:04;17.73;;;5.90;;
3967;SDS011;9221;42.646;23.380;2022-10-16T07:31:36;15.77;;;5.73;;
3967;SDS011;9221;42.646;23.380;2022-10-16T07:34:01;18.97;;;5.70;;
3967;SDS011;9221;42.646;23.380;2022-10-16T07:36:27;20.23;;;5.80;;
3967;SDS011;9221;42.646;23.380;2022-10-16T07:38:52;11.97;;;5.20;;
3967;SDS011;9221;42.646;23.380;2022-10-16T07:41:18;13.83;;;6.47;;
3967;SDS011;9221;42.646;23.380;2022-10-16T07:43:45;12.40;;;5.17;;
3967;SDS011;9221;42.646;23.380;2022-10-16T07:46:12;16.50;;;5.60;;
3967;SDS011;9221;42.646;23.380;2022-10-16T07:48:37;17.23;;;5.40;;
3967;SDS011;9221;42.646;23.380;2022-10-16T07:51:04;11.03;;;5.17;;
3967;SDS011;9221;42.646;23.380;2022-10-16T07:53:31;13.93;;;6.00;;
3967;SDS011;9221;42.646;23.380;2022-10-16T07:56:01;15.10;;;5.40;;
3967;SDS011;9221;42.646;23.380;2022-10-16T07:58:31;11.30;;;5.43;;
3967;SDS011;9221;42.646;23.380;2022-10-16T08:00:58;12.03;;;4.80;;
3967;SDS011;9221;42.646;23.380;2022-10-16T08:03:24;9.80;;;4.17;;
3967;SDS011;9221;42.646;23.380;2022-10-16T08:05:50;9.43;;;5.30;;
3967;SDS011;9221;42.646;23.380;2022-10-16T08:08:17;8.20;;;4.20;;
3967;SDS011;9221;42.646;23.380;2022-10-16T08:10:43;10.67;;;4.57;;
3967;SDS011;9221;42.646;23.380;2022-10-16T08:13:09;13.87;;;4.83;;
3967;SDS011;9221;42.646;23.380;2022-10-16T08:15:35;8.13;;;4.10;;
3967;SDS011;9221;42.646;23.380;2022-10-16T08:18:01;15.83;;;3.90;;
3967;SDS011;9221;42.646;23.380;2022-10-16T08:20:28;7.00;;;3.73;;
3967;SDS011;9221;42.646;23.380;2022-10-16T08:22:54;8.17;;;4.00;;
3967;SDS011;9221;42.646;23.380;2022-10-16T08:25:21;5.87;;;3.47;;
3967;SDS011;9221;42.646;23.380;2022-10-16T08:27:47;13.50;;;3.80;;
3967;SDS011;9221;42.646;23.380;2022-10-16T08:30:14;8.30;;;3.10;;
3967;SDS011;9221;42.646;23.380;2022-10-16T08:32:40;6.73;;;3.40;;
3967;SDS011;9221;42.646;23.380;2022-10-16T08:35:09;15.03;;;4.07;;
3967;SDS011;9221;42.646;23.380;2022-10-16T08:37:35;16.23;;;3.23;;
3967;SDS011;9221;42.646;23.380;2022-10-16T08:40:01;5.90;;;3.37;;
3967;SDS011;9221;42.646;23.380;2022-10-16T08:45:26;5.43;;;3.20;;
3967;SDS011;9221;42.646;23.380;2022-10-16T08:50:31;10.32;;;3.90;;
3967;SDS011;9221;42.646;23.380;2022-10-16T08:53:00;6.27;;;2.83;;
3967;SDS011;9221;42.646;23.380;2022-10-16T08:55:41;7.60;;;3.50;;
3967;SDS011;9221;42.646;23.380;2022-10-16T08:58:29;5.17;;;2.20;;
3967;SDS011;9221;42.646;23.380;2022-10-16T09:01:00;5.33;;;2.40;;
3967;SDS011;9221;42.646;23.380;2022-10-16T09:06:58;6.53;;;2.27;;
3967;SDS011;9221;42.646;23.380;2022-10-16T09:12:39;4.37;;;2.20;;
3967;SDS011;9221;42.646;23.380;2022-10-16T09:15:17;4.70;;;2.37;;
3967;SDS011;9221;42.646;23.380;2022-10-16T09:20:42;10.57;;;2.50;;
3967;SDS011;9221;42.646;23.380;2022-10-16T09:23:32;5.40;;;2.53;;
3967;SDS011;9221;42.646;23.380;2022-10-16T09:26:00;2.83;;;2.10;;
3967;SDS011;9221;42.646;23.380;2022-10-16T09:28:27;4.03;;;2.47;;
3967;SDS011;9221;42.646;23.380;2022-10-16T09:30:53;7.07;;;2.27;;
3967;SDS011;9221;42.646;23.380;2022-10-16T09:33:20;6.17;;;2.57;;
3967;SDS011;9221;42.646;23.380;2022-10-16T09:35:49;7.77;;;2.00;;
3967;SDS011;9221;42.646;23.380;2022-10-16T09:38:34;11.73;;;2.30;;
3967;SDS011;9221;42.646;23.380;2022-10-16T09:43:54;3.67;;;2.10;;
3967;SDS011;9221;42.646;23.380;2022-10-16T09:46:26;5.20;;;1.97;;
3967;SDS011;9221;42.646;23.380;2022-10-16T09:48:57;3.00;;;1.93;;
3967;SDS011;9221;42.646;23.380;2022-10-16T09:51:26;3.23;;;2.00;;
3967;SDS011;9221;42.646;23.380;2022-10-16T09:53:58;3.53;;;2.30;;
3967;SDS011;9221;42.646;23.380;2022-10-16T09:56:37;4.73;;;2.77;;
3967;SDS011;9221;42.646;23.380;2022-10-16T09:59:11;5.50;;;2.50;;
3967;SDS011;9221;42.646;23.380;2022-10-16T10:01:48;3.03;;;2.17;;
3967;SDS011;9221;42.646;23.380;2022-10-16T10:04:16;6.00;;;2.03;;
3967;SDS011;9221;42.646;23.380;2022-10-16T10:09:17;6.10;;;2.40;;
3967;SDS011;9221;42.646;23.380;2022-10-16T10:14:16;6.73;;;2.53;;
3967;SDS011;9221;42.646;23.380;2022-10-16T10:16:45;4.30;;;2.30;;
3967;SDS011;9221;42.646;23.380;2022-10-16T10:19:17;5.57;;;2.40;;
3967;SDS011;9221;42.646;23.380;2022-10-16T10:21:44;3.40;;;1.87;;
3967;SDS011;9221;42.646;23.380;2022-10-16T10:24:11;8.60;;;2.70;;
3967;SDS011;9221;42.646;23.380;2022-10-16T10:26:38;4.30;;;2.60;;
3967;SDS011;9221;42.646;23.380;2022-10-16T10:31:45;5.53;;;2.53;;
3967;SDS011;9221;42.646;23.380;2022-10-16T10:37:04;6.70;;;2.20;;
3967;SDS011;9221;42.646;23.380;2022-10-16T10:43:01;3.73;;;2.33;;
3967;SDS011;9221;42.646;23.380;2022-10-16T10:45:48;9.17;;;3.07;;
3967;SDS011;9221;42.646;23.380;2022-10-16T10:48:28;5.70;;;2.20;;
3967;SDS011;9221;42.646;23.380;2022-10-16T10:51:17;3.87;;;2.07;;
3967;SDS011;9221;42.646;23.380;2022-10-16T10:54:32;6.67;;;2.57;;
3967;SDS011;9221;42.646;23.380;2022-10-16T10:56:56;4.57;;;1.90;;
3967;SDS011;9221;42.646;23.380;2022-10-16T11:03:04;4.60;;;1.80;;
3967;SDS011;9221;42.646;23.380;2022-10-16T11:07:35;3.00;;;1.50;;
3967;SDS011;9221;42.646;23.380;2022-10-16T11:10:24;3.80;;;2.50;;
3967;SDS011;9221;42.646;23.380;2022-10-16T11:12:55;2.67;;;1.50;;
3967;SDS011;9221;42.646;23.380;2022-10-16T11:15:32;3.50;;;1.40;;
3967;SDS011;9221;42.646;23.380;2022-10-16T11:18:06;2.10;;;1.23;;
3967;SDS011;9221;42.646;23.380;2022-10-16T11:20:45;2.67;;;1.23;;
3967;SDS011;9221;42.646;23.380;2022-10-16T11:23:18;2.00;;;1.27;;
3967;SDS011;9221;42.646;23.380;2022-10-16T11:26:02;2.83;;;1.80;;
3967;SDS011;9221;42.646;23.380;2022-10-16T11:28:37;4.40;;;1.60;;
3967;SDS011;9221;42.646;23.380;2022-10-16T11:31:13;3.90;;;1.53;;
3967;SDS011;9221;42.646;23.380;2022-10-16T11:33:46;2.40;;;1.47;;
3967;SDS011;9221;42.646;23.380;2022-10-16T11:36:21;3.57;;;1.70;;
3967;SDS011;9221;42.646;23.380;2022-10-16T11:46:35;6.00;;;1.60;;
3967;SDS011;9221;42.646;23.380;2022-10-16T11:49:13;7.00;;;1.63;;
3967;SDS011;9221;42.646;23.380;2022-10-16T11:51:48;2.27;;;1.53;;
3967;SDS011;9221;42.646;23.380;2022-10-16T11:57:29;5.70;;;1.50;;
3967;SDS011;9221;42.646;23.380;2022-10-16T12:00:00;3.67;;;1.90;;
3967;SDS011;9221;42.646;23.380;2022-10-16T12:02:35;15.60;;;3.00;;
3967;SDS011;9221;42.646;23.380;2022-10-16T12:05:12;3.23;;;1.60;;
3967;SDS011;9221;42.646;23.380;2022-10-16T12:10:41;2.70;;;1.47;;
3967;SDS011;9221;42.646;23.380;2022-10-16T12:16:07;2.60;;;1.70;;
3967;SDS011;9221;42.646;23.380;2022-10-16T12:18:46;3.03;;;1.87;;
3967;SDS011;9221;42.646;23.380;2022-10-16T12:21:13;3.13;;;1.77;;
3967;SDS011;9221;42.646;23.380;2022-10-16T12:23:54;2.80;;;1.47;;
3967;SDS011;9221;42.646;23.380;2022-10-16T12:26:28;2.00;;;1.60;;
3967;SDS011;9221;42.646;23.380;2022-10-16T12:28:56;5.57;;;1.63;;
3967;SDS011;9221;42.646;23.380;2022-10-16T12:31:37;1.87;;;1.23;;
3967;SDS011;9221;42.646;23.380;2022-10-16T12:34:46;3.57;;;1.70;;
3967;SDS011;9221;42.646;23.380;2022-10-16T12:37:26;2.00;;;1.27;;
3967;SDS011;9221;42.646;23.380;2022-10-16T12:39:56;4.63;;;1.50;;
3967;SDS011;9221;42.646;23.380;2022-10-16T12:44:54;3.07;;;1.70;;
3967;SDS011;9221;42.646;23.380;2022-10-16T12:49:58;5.80;;;1.63;;
3967;SDS011;9221;42.646;23.380;2022-10-16T12:52:28;5.60;;;1.63;;
3967;SDS011;9221;42.646;23.380;2022-10-16T12:55:01;5.17;;;2.10;;
3967;SDS011;9221;42.646;23.380;2022-10-16T13:22:40;2.40;;;1.53;;
3967;SDS011;9221;42.646;23.380;2022-10-16T13:28:06;8.43;;;5.20;;
3967;SDS011;9221;42.646;23.380;2022-10-16T13:30:38;4.30;;;2.07;;
3967;SDS011;9221;42.646;23.380;2022-10-16T13:35:47;2.60;;;1.57;;
3967;SDS011;9221;42.646;23.380;2022-10-16T13:38:21;2.10;;;1.30;;
3967;SDS011;9221;42.646;23.380;2022-10-16T13:43:34;3.50;;;1.30;;
3967;SDS011;9221;42.646;23.380;2022-10-16T13:48:58;2.83;;;1.87;;
3967;SDS011;9221;42.646;23.380;2022-10-16T13:51:25;3.00;;;1.70;;
3967;SDS011;9221;42.646;23.380;2022-10-16T13:53:52;3.87;;;1.40;;
3967;SDS011;9221;42.646;23.380;2022-10-16T13:56:20;5.37;;;1.63;;
3967;SDS011;9221;42.646;23.380;2022-10-16T13:59:05;3.50;;;1.77;;
3967;SDS011;9221;42.646;23.380;2022-10-16T14:01:33;2.47;;;1.60;;
3967;SDS011;9221;42.646;23.380;2022-10-16T14:04:08;6.57;;;1.80;;
3967;SDS011;9221;42.646;23.380;2022-10-16T14:06:36;4.83;;;1.53;;
3967;SDS011;9221;42.646;23.380;2022-10-16T14:09:07;5.00;;;1.63;;
3967;SDS011;9221;42.646;23.380;2022-10-16T14:11:48;3.83;;;1.60;;
3967;SDS011;9221;42.646;23.380;2022-10-16T14:14:16;4.57;;;1.70;;
3967;SDS011;9221;42.646;23.380;2022-10-16T14:16:43;2.10;;;1.50;;
3967;SDS011;9221;42.646;23.380;2022-10-16T14:19:18;6.17;;;1.70;;
3967;SDS011;9221;42.646;23.380;2022-10-16T14:21:49;3.03;;;1.30;;
3967;SDS011;9221;42.646;23.380;2022-10-16T14:24:27;4.40;;;1.60;;
3967;SDS011;9221;42.646;23.380;2022-10-16T14:26:57;2.47;;;1.17;;
3967;SDS011;9221;42.646;23.380;2022-10-16T14:29:24;3.80;;;1.80;;
3967;SDS011;9221;42.646;23.380;2022-10-16T14:31:58;5.63;;;1.63;;
3967;SDS011;9221;42.646;23.380;2022-10-16T14:34:32;5.17;;;1.60;;
3967;SDS011;9221;42.646;23.380;2022-10-16T14:37:23;2.70;;;1.80;;
3967;SDS011;9221;42.646;23.380;2022-10-16T14:39:48;4.27;;;1.60;;
3967;SDS011;9221;42.646;23.380;2022-10-16T14:42:18;5.90;;;1.70;;
3967;SDS011;9221;42.646;23.380;2022-10-16T14:44:45;2.67;;;1.40;;
3967;SDS011;9221;42.646;23.380;2022-10-16T14:47:18;1.90;;;1.47;;
3967;SDS011;9221;42.646;23.380;2022-10-16T14:49:49;5.87;;;2.00;;
3967;SDS011;9221;42.646;23.380;2022-10-16T14:52:15;5.30;;;2.17;;
3967;SDS011;9221;42.646;23.380;2022-10-16T14:54:40;2.23;;;1.50;;
3967;SDS011;9221;42.646;23.380;2022-10-16T14:57:15;8.60;;;1.60;;
3967;SDS011;9221;42.646;23.380;2022-10-16T14:59:42;3.57;;;1.40;;
3967;SDS011;9221;42.646;23.380;2022-10-16T15:04:42;10.53;;;1.90;;
3967;SDS011;9221;42.646;23.380;2022-10-16T15:07:08;5.60;;;1.60;;
3967;SDS011;9221;42.646;23.380;2022-10-16T15:09:33;3.17;;;1.70;;
3967;SDS011;9221;42.646;23.380;2022-10-16T15:11:58;2.30;;;1.57;;
3967;SDS011;9221;42.646;23.380;2022-10-16T15:14:24;5.20;;;2.03;;
3967;SDS011;9221;42.646;23.380;2022-10-16T15:16:49;4.00;;;1.77;;
3967;SDS011;9221;42.646;23.380;2022-10-16T15:19:15;5.70;;;1.90;;
3967;SDS011;9221;42.646;23.380;2022-10-16T15:21:40;6.57;;;2.00;;
3967;SDS011;9221;42.646;23.380;2022-10-16T15:24:08;6.83;;;2.10;;
3967;SDS011;9221;42.646;23.380;2022-10-16T15:26:36;5.83;;;1.93;;
3967;SDS011;9221;42.646;23.380;2022-10-16T15:29:02;7.20;;;1.80;;
3967;SDS011;9221;42.646;23.380;2022-10-16T15:31:27;4.23;;;2.00;;
3967;SDS011;9221;42.646;23.380;2022-10-16T15:33:53;5.90;;;1.67;;
3967;SDS011;9221;42.646;23.380;2022-10-16T15:36:33;5.40;;;2.20;;
3967;SDS011;9221;42.646;23.380;2022-10-16T15:39:02;9.50;;;2.10;;
3967;SDS011;9221;42.646;23.380;2022-10-16T15:41:30;8.23;;;2.50;;
3967;SDS011;9221;42.646;23.380;2022-10-16T15:43:56;5.60;;;2.60;;
3967;SDS011;9221;42.646;23.380;2022-10-16T15:46:22;7.77;;;2.83;;
3967;SDS011;9221;42.646;23.380;2022-10-16T15:48:49;5.33;;;2.40;;
3967;SDS011;9221;42.646;23.380;2022-10-16T15:51:15;4.70;;;1.93;;
3967;SDS011;9221;42.646;23.380;2022-10-16T15:53:42;4.73;;;2.20;;
3967;SDS011;9221;42.646;23.380;2022-10-16T15:56:08;5.10;;;2.30;;
3967;SDS011;9221;42.646;23.380;2022-10-16T15:58:36;8.17;;;2.00;;
3967;SDS011;9221;42.646;23.380;2022-10-16T16:01:02;4.30;;;2.10;;
3967;SDS011;9221;42.646;23.380;2022-10-16T16:03:29;6.87;;;2.30;;
3967;SDS011;9221;42.646;23.380;2022-10-16T16:05:55;7.50;;;2.40;;
3967;SDS011;9221;42.646;23.380;2022-10-16T16:08:21;6.53;;;2.60;;
3967;SDS011;9221;42.646;23.380;2022-10-16T16:11:08;6.03;;;2.43;;
3967;SDS011;9221;42.646;23.380;2022-10-16T16:13:34;7.70;;;2.50;;
3967;SDS011;9221;42.646;23.380;2022-10-16T16:16:04;5.73;;;2.63;;
3967;SDS011;9221;42.646;23.380;2022-10-16T16:18:30;5.90;;;2.60;;
3967;SDS011;9221;42.646;23.380;2022-10-16T16:20:56;4.20;;;2.63;;
3967;SDS011;9221;42.646;23.380;2022-10-16T16:23:21;9.13;;;3.17;;
3967;SDS011;9221;42.646;23.380;2022-10-16T16:26:10;18.43;;;3.43;;
3967;SDS011;9221;42.646;23.380;2022-10-16T16:28:57;11.53;;;3.40;;
3967;SDS011;9221;42.646;23.380;2022-10-16T16:31:23;32.23;;;6.67;;
3967;SDS011;9221;42.646;23.380;2022-10-16T16:33:50;8.60;;;3.40;;
3967;SDS011;9221;42.646;23.380;2022-10-16T16:36:16;14.33;;;3.20;;
3967;SDS011;9221;42.646;23.380;2022-10-16T16:38:43;13.13;;;3.93;;
3967;SDS011;9221;42.646;23.380;2022-10-16T16:41:12;13.67;;;4.30;;
3967;SDS011;9221;42.646;23.380;2022-10-16T16:43:39;12.20;;;4.60;;
3967;SDS011;9221;42.646;23.380;2022-10-16T16:46:05;17.67;;;4.73;;
3967;SDS011;9221;42.646;23.380;2022-10-16T16:48:31;23.37;;;7.77;;
3967;SDS011;9221;42.646;23.380;2022-10-16T16:51:01;15.80;;;6.03;;
3967;SDS011;9221;42.646;23.380;2022-10-16T16:53:28;11.57;;;4.83;;
3967;SDS011;9221;42.646;23.380;2022-10-16T16:55:53;21.50;;;4.30;;
3967;SDS011;9221;42.646;23.380;2022-10-16T16:58:19;21.80;;;4.60;;
3967;SDS011;9221;42.646;23.380;2022-10-16T17:00:45;14.63;;;4.80;;
3967;SDS011;9221;42.646;23.380;2022-10-16T17:03:11;18.00;;;5.30;;
3967;SDS011;9221;42.646;23.380;2022-10-16T17:05:36;19.00;;;4.30;;
3967;SDS011;9221;42.646;23.380;2022-10-16T17:08:01;15.47;;;4.70;;
3967;SDS011;9221;42.646;23.380;2022-10-16T17:10:27;9.20;;;4.20;;
3967;SDS011;9221;42.646;23.380;2022-10-16T17:12:52;15.43;;;4.60;;